Time;durP1;ratioP1;P1;durP2;ratioP2;P2;SDS_P1;SDS_P2;PMS_P1;PMS_P2;Temp;Humidity;BMP_temperature;BMP_pressure;BME280_temperature;BME280_humidity;BME280_pressure;Samples;Min_cycle;Max_cycle;Signal;HPM_P1;HPM_P2
2022/05/26 00:01:55;;;;;;;7.43;1.70;;;11.20;99.90;;;;;;4990663;28;20050;-55
2022/05/26 00:04:23;;;;;;;9.05;1.05;;;11.20;99.90;;;;;;5004061;28;20056;-55
2022/05/26 00:06:52;;;;;;;10.40;1.23;;;11.20;99.90;;;;;;5010327;28;20057;-55
2022/05/26 00:09:20;;;;;;;5.50;1.10;;;11.20;99.90;;;;;;5010008;28;20048;-56
2022/05/26 00:11:48;;;;;;;4.25;0.88;;;11.20;99.90;;;;;;5009216;28;20049;-57
2022/05/26 00:14:16;;;;;;;14.68;0.90;;;11.10;99.90;;;;;;5007842;28;20045;-58
2022/05/26 00:16:46;;;;;;;5.45;1.10;;;11.10;99.90;;;;;;4989250;28;20054;-56
2022/05/26 00:19:16;;;;;;;7.90;1.67;;;11.10;99.90;;;;;;4998546;28;20045;-56
2022/05/26 00:21:45;;;;;;;7.70;0.82;;;11.00;99.90;;;;;;5009963;28;20057;-55
2022/05/26 00:24:13;;;;;;;7.72;1.30;;;11.00;99.90;;;;;;5009880;28;20129;-55
2022/05/26 00:26:40;;;;;;;6.78;1.00;;;11.00;99.90;;;;;;5010075;28;20540;-55
2022/05/26 00:29:08;;;;;;;2.55;0.70;;;11.00;99.90;;;;;;5009382;28;20471;-57
2022/05/26 00:31:36;;;;;;;7.68;1.83;;;11.00;99.90;;;;;;4989512;28;20050;-55
2022/05/26 00:34:03;;;;;;;6.85;0.90;;;11.00;99.90;;;;;;5000861;28;20434;-56
2022/05/26 00:36:37;;;;;;;14.93;1.58;;;10.90;99.90;;;;;;5008651;28;20057;-55
2022/05/26 00:39:20;;;;;;;6.80;1.17;;;10.90;99.90;;;;;;5009889;28;20038;-55
2022/05/26 00:41:56;;;;;;;5.05;0.77;;;10.80;99.90;;;;;;5009906;28;20046;-55
2022/05/26 00:44:24;;;;;;;8.55;1.08;;;10.80;99.90;;;;;;5007985;28;20050;-55
2022/05/26 00:47:25;;;;;;;4.40;0.60;;;10.80;99.90;;;;;;4990264;28;20053;-55
2022/05/26 00:50:01;;;;;;;7.15;1.27;;;10.80;99.90;;;;;;5003326;28;20061;-55
2022/05/26 00:52:35;;;;;;;8.75;1.00;;;10.70;99.90;;;;;;5009873;28;20046;-55
2022/05/26 00:55:10;;;;;;;10.20;0.98;;;10.70;99.90;;;;;;5009802;28;20046;-55
2022/05/26 00:57:43;;;;;;;7.57;1.30;;;10.70;99.90;;;;;;5009283;28;20069;-55
2022/05/26 01:00:17;;;;;;;6.60;1.13;;;10.70;99.90;;;;;;5002464;28;20051;-55
2022/05/26 01:02:53;;;;;;;8.50;0.93;;;10.70;99.90;;;;;;4988799;28;20043;-55
2022/05/26 01:05:31;;;;;;;10.52;0.98;;;10.70;99.90;;;;;;5004330;28;20046;-55
2022/05/26 01:08:00;;;;;;;6.93;0.95;;;10.70;99.90;;;;;;5008929;28;20041;-55
2022/05/26 01:10:27;;;;;;;3.35;0.70;;;10.60;99.90;;;;;;5009393;28;20054;-55
2022/05/26 01:12:55;;;;;;;6.40;1.33;;;10.60;99.90;;;;;;5009504;28;20061;-55
2022/05/26 01:15:23;;;;;;;3.83;0.90;;;10.60;99.90;;;;;;5001892;28;20049;-55
2022/05/26 01:18:18;;;;;;;6.47;0.85;;;10.60;99.90;;;;;;4989817;28;20065;-55
2022/05/26 01:21:21;;;;;;;7.43;1.27;;;10.60;99.90;;;;;;4989939;28;20038;-55
2022/05/26 01:24:14;;;;;;;6.32;0.80;;;10.60;99.90;;;;;;4998225;28;20053;-55
2022/05/26 01:27:05;;;;;;;4.47;0.95;;;10.60;99.90;;;;;;5009480;28;20053;-55
2022/05/26 01:29:48;;;;;;;4.68;0.98;;;10.60;99.90;;;;;;5008942;28;20046;-56
2022/05/26 01:32:32;;;;;;;5.05;0.90;;;10.60;99.90;;;;;;5004658;28;20050;-55
2022/05/26 01:35:30;;;;;;;7.05;0.90;;;10.60;99.90;;;;;;4995033;28;20046;-55
2022/05/26 01:38:26;;;;;;;8.27;1.27;;;10.60;99.90;;;;;;4993429;28;20069;-55
2022/05/26 01:41:07;;;;;;;8.57;1.00;;;10.60;99.90;;;;;;4994774;28;20393;-55
2022/05/26 01:43:57;;;;;;;6.13;0.60;;;10.60;99.90;;;;;;4994822;28;20062;-55
2022/05/26 01:46:32;;;;;;;5.63;0.98;;;10.50;99.90;;;;;;5004495;28;20072;-56
2022/05/26 01:49:16;;;;;;;5.95;0.80;;;10.50;99.90;;;;;;5014383;28;20060;-55
2022/05/26 01:52:01;;;;;;;3.28;0.70;;;10.50;99.90;;;;;;5014347;28;20522;-55
2022/05/26 01:54:32;;;;;;;4.95;0.77;;;10.50;99.90;;;;;;5014220;28;20050;-55
2022/05/26 01:57:15;;;;;;;1.38;0.70;;;10.50;99.90;;;;;;5012960;28;20057;-55
2022/05/26 01:59:45;;;;;;;6.97;0.90;;;10.50;99.90;;;;;;5013431;28;20068;-55
2022/05/26 02:02:22;;;;;;;7.60;0.70;;;10.50;99.90;;;;;;5014010;28;20125;-55
2022/05/26 02:05:16;;;;;;;1.80;1.23;;;10.50;99.90;;;;;;5014044;28;20054;-55
2022/05/26 02:07:47;;;;;;;7.88;1.27;;;10.50;99.90;;;;;;5005095;28;20061;-56
2022/05/26 02:10:37;;;;;;;4.43;0.60;;;10.60;99.90;;;;;;5012667;28;20046;-55
2022/05/26 02:13:11;;;;;;;3.58;0.65;;;10.70;99.90;;;;;;5013696;28;20049;-55
2022/05/26 02:15:47;;;;;;;12.48;1.70;;;10.80;99.90;;;;;;5013919;28;20050;-55
2022/05/26 02:18:24;;;;;;;4.50;0.90;;;10.80;99.90;;;;;;5013699;28;20496;-56
2022/05/26 02:20:56;;;;;;;4.80;0.40;;;10.80;99.90;;;;;;5013818;28;20398;-55
2022/05/26 02:23:44;;;;;;;4.00;0.70;;;10.90;99.90;;;;;;5013786;28;20054;-56
2022/05/26 02:26:13;;;;;;;5.78;0.73;;;10.90;99.90;;;;;;5013854;28;20050;-56
2022/05/26 02:31:29;;;;;;;9.23;0.93;;;10.90;99.90;;;;;;5045422;28;20046;-55
2022/05/26 02:34:01;;;;;;;5.85;0.60;;;10.90;99.90;;;;;;5013434;28;20061;-55
2022/05/26 02:36:32;;;;;;;5.45;1.00;;;10.90;99.90;;;;;;5013362;28;20053;-55
2022/05/26 02:39:00;;;;;;;9.18;0.93;;;10.90;99.90;;;;;;5012788;28;20091;-55
2022/05/26 02:41:29;;;;;;;3.38;0.80;;;10.90;99.90;;;;;;5013338;28;20057;-55
2022/05/26 02:43:58;;;;;;;9.38;1.65;;;10.90;99.90;;;;;;5013025;28;20053;-55
2022/05/26 02:46:43;;;;;;;7.75;0.88;;;11.00;99.90;;;;;;5013243;28;20532;-55
2022/05/26 02:49:29;;;;;;;5.30;0.80;;;10.90;99.90;;;;;;5013197;28;20034;-55
2022/05/26 02:52:19;;;;;;;4.88;0.88;;;11.00;99.90;;;;;;5013266;28;20045;-55
2022/05/26 02:55:08;;;;;;;4.28;1.00;;;11.00;99.90;;;;;;5011891;28;20046;-55
2022/05/26 02:57:50;;;;;;;1.85;0.63;;;11.00;99.90;;;;;;5011764;28;20501;-55
2022/05/26 03:00:49;;;;;;;12.45;1.20;;;11.00;99.90;;;;;;5011966;28;20422;-55
2022/05/26 03:03:41;;;;;;;5.65;0.80;;;11.10;99.90;;;;;;4996049;28;20049;-55
2022/05/26 03:06:16;;;;;;;7.45;0.75;;;11.10;99.90;;;;;;5012987;28;20050;-55
2022/05/26 03:08:44;;;;;;;6.75;1.05;;;11.10;99.90;;;;;;5012906;28;20383;-55
2022/05/26 03:11:17;;;;;;;4.22;1.05;;;11.10;99.90;;;;;;5012609;28;20049;-55
2022/05/26 03:13:45;;;;;;;5.60;1.20;;;11.00;99.90;;;;;;5012709;28;20049;-55
2022/05/26 03:16:12;;;;;;;9.52;1.55;;;11.00;99.90;;;;;;5012778;28;20046;-54
2022/05/26 03:18:40;;;;;;;8.95;1.92;;;11.00;99.90;;;;;;5012641;28;20064;-55
2022/05/26 03:26:45;;;;;;;7.43;1.10;;;10.90;99.90;;;;;;5096788;23;20056;-57
2022/05/26 03:29:16;;;;;;;7.68;1.00;;;10.80;99.90;;;;;;4897331;29;20052;-56
2022/05/26 03:31:45;;;;;;;7.38;1.15;;;10.80;99.90;;;;;;4897307;29;20071;-57
2022/05/26 03:42:31;;;;;;;6.72;1.05;;;10.90;99.90;;;;;;4911573;29;20056;-57
2022/05/26 03:44:58;;;;;;;1.95;1.00;;;10.90;99.90;;;;;;4897037;29;20063;-57
2022/05/26 03:47:26;;;;;;;10.30;1.20;;;10.90;99.90;;;;;;4896987;29;20045;-57
2022/05/26 03:49:53;;;;;;;6.15;0.95;;;10.80;99.90;;;;;;4897028;29;20048;-57
2022/05/26 03:52:22;;;;;;;11.35;1.20;;;10.90;99.90;;;;;;4896803;29;20071;-57
2022/05/26 03:54:50;;;;;;;7.32;1.00;;;10.80;99.90;;;;;;4896137;29;20057;-57
2022/05/26 03:57:25;;;;;;;4.50;1.13;;;10.70;99.90;;;;;;4896661;29;20503;-57
2022/05/26 03:59:53;;;;;;;7.38;1.15;;;10.70;99.90;;;;;;4896791;29;20052;-57
2022/05/26 04:02:21;;;;;;;5.72;1.73;;;10.70;99.90;;;;;;4895641;29;20059;-57
2022/05/26 04:04:49;;;;;;;8.50;1.70;;;10.60;99.90;;;;;;4896633;29;20048;-56
2022/05/26 04:07:17;;;;;;;9.75;1.17;;;10.60;99.90;;;;;;4896468;29;20049;-56
2022/05/26 04:09:44;;;;;;;4.45;1.67;;;10.60;99.90;;;;;;4895467;29;20496;-57
2022/05/26 04:12:12;;;;;;;8.43;1.27;;;10.60;99.90;;;;;;4896645;29;20496;-57
2022/05/26 04:14:40;;;;;;;6.13;1.17;;;10.60;99.90;;;;;;4896615;29;20048;-57
2022/05/26 04:17:07;;;;;;;4.57;1.20;;;10.60;99.90;;;;;;4896504;29;20052;-57
2022/05/26 04:19:41;;;;;;;4.38;1.67;;;10.60;99.90;;;;;;4896614;29;20052;-57
2022/05/26 04:22:15;;;;;;;9.93;1.52;;;10.60;99.90;;;;;;4896347;29;20052;-57
2022/05/26 04:24:44;;;;;;;4.25;0.90;;;10.60;99.90;;;;;;4896532;29;20511;-56
2022/05/26 04:27:11;;;;;;;6.95;1.10;;;10.50;99.90;;;;;;4896281;29;20053;-56
2022/05/26 04:29:39;;;;;;;11.65;1.85;;;10.50;99.90;;;;;;4896525;29;20401;-56
2022/05/26 04:32:07;;;;;;;7.43;2.28;;;10.50;99.90;;;;;;4896356;29;20484;-57
2022/05/26 04:34:35;;;;;;;8.48;1.35;;;10.50;99.90;;;;;;4896359;29;20041;-57
2022/05/26 04:37:04;;;;;;;7.13;2.00;;;10.50;99.90;;;;;;4896386;29;20400;-57
2022/05/26 04:39:32;;;;;;;7.75;1.15;;;10.60;99.90;;;;;;4896235;29;20063;-56
2022/05/26 04:42:03;;;;;;;9.52;2.15;;;10.60;99.90;;;;;;4896539;29;20374;-56
2022/05/26 04:44:41;;;;;;;5.38;1.00;;;10.60;99.90;;;;;;4896219;29;20056;-57
2022/05/26 04:47:09;;;;;;;5.40;1.20;;;10.60;99.90;;;;;;4892428;29;20056;-57
2022/05/26 04:49:38;;;;;;;4.93;1.33;;;10.70;99.90;;;;;;4857676;29;20064;-58
2022/05/26 04:52:10;;;;;;;4.70;0.98;;;10.60;99.90;;;;;;4874276;29;20056;-57
2022/05/26 04:54:38;;;;;;;8.80;1.30;;;10.70;99.90;;;;;;4874726;29;20423;-56
2022/05/26 04:57:06;;;;;;;5.25;0.90;;;10.70;99.90;;;;;;4874795;29;20413;-59
2022/05/26 04:59:34;;;;;;;6.82;1.52;;;10.70;99.90;;;;;;4892936;29;20056;-57
2022/05/26 05:02:04;;;;;;;6.43;1.20;;;10.80;99.90;;;;;;4886677;29;20064;-57
2022/05/26 05:04:32;;;;;;;3.30;0.85;;;10.80;99.90;;;;;;4873118;29;20061;-58
2022/05/26 05:07:00;;;;;;;7.20;1.88;;;10.80;99.90;;;;;;4874786;29;20045;-57
2022/05/26 05:09:27;;;;;;;3.70;1.02;;;10.90;99.90;;;;;;4875020;29;20083;-56
2022/05/26 05:11:56;;;;;;;4.85;1.15;;;10.90;99.90;;;;;;4877696;29;20045;-56
2022/05/26 05:14:24;;;;;;;4.93;1.05;;;10.90;99.90;;;;;;4893681;29;20489;-56
2022/05/26 05:16:51;;;;;;;6.70;1.38;;;10.90;99.90;;;;;;4896555;29;20404;-56
2022/05/26 05:19:19;;;;;;;6.03;1.30;;;10.90;99.90;;;;;;4896585;29;20512;-56
2022/05/26 05:21:57;;;;;;;10.07;1.70;;;11.00;99.90;;;;;;4878956;29;20467;-56
2022/05/26 05:24:34;;;;;;;8.48;1.67;;;11.00;99.90;;;;;;4894554;29;20041;-56
2022/05/26 05:27:25;;;;;;;6.35;1.63;;;11.10;99.90;;;;;;4895427;29;20069;-56
2022/05/26 05:29:56;;;;;;;8.77;3.20;;;11.10;99.90;;;;;;4896423;29;20061;-57
2022/05/26 05:32:45;;;;;;;10.73;1.95;;;11.20;99.90;;;;;;4897203;29;20049;-56
2022/05/26 05:35:19;;;;;;;4.97;1.30;;;11.20;99.90;;;;;;4878959;29;20057;-56
2022/05/26 05:37:46;;;;;;;4.53;1.30;;;11.30;99.90;;;;;;4884557;29;20303;-56
2022/05/26 05:40:14;;;;;;;3.90;1.17;;;11.40;99.90;;;;;;4896320;29;20080;-57
2022/05/26 05:42:42;;;;;;;4.40;1.10;;;11.40;99.90;;;;;;4897312;29;20044;-57
2022/05/26 05:45:10;;;;;;;3.80;1.35;;;11.40;99.90;;;;;;4897578;29;20053;-57
2022/05/26 05:47:37;;;;;;;7.97;1.40;;;11.50;99.90;;;;;;4896128;29;20056;-56
2022/05/26 05:50:06;;;;;;;5.78;1.30;;;11.60;99.90;;;;;;4896170;29;20056;-57
2022/05/26 05:52:34;;;;;;;4.47;1.33;;;11.70;99.90;;;;;;4897516;29;20382;-56
2022/05/26 05:55:04;;;;;;;9.05;1.88;;;11.80;99.90;;;;;;4897547;29;20060;-56
2022/05/26 05:57:36;;;;;;;7.90;1.25;;;11.90;99.90;;;;;;4893198;29;20048;-57
2022/05/26 06:00:06;;;;;;;6.57;1.73;;;12.00;99.90;;;;;;4894140;29;20048;-57
2022/05/26 06:02:34;;;;;;;4.68;0.90;;;12.10;99.90;;;;;;4893879;29;20206;-57
2022/05/26 06:05:04;;;;;;;10.88;1.67;;;12.20;99.90;;;;;;4874969;29;20061;-56
2022/05/26 06:07:33;;;;;;;7.55;1.02;;;12.30;99.90;;;;;;4881741;29;20512;-57
2022/05/26 06:10:03;;;;;;;5.55;0.80;;;12.40;99.90;;;;;;4897141;29;20048;-57
2022/05/26 06:12:30;;;;;;;5.25;1.20;;;12.50;99.90;;;;;;4896847;29;20049;-57
2022/05/26 06:14:58;;;;;;;4.40;0.45;;;12.60;99.90;;;;;;4894212;29;20063;-57
2022/05/26 06:17:26;;;;;;;3.78;0.55;;;12.70;99.90;;;;;;4893202;29;20048;-57
2022/05/26 06:19:53;;;;;;;4.18;1.02;;;12.80;99.90;;;;;;4879520;29;20053;-56
2022/05/26 06:22:23;;;;;;;3.05;1.25;;;12.90;99.90;;;;;;4882918;29;20477;-57
2022/05/26 06:24:51;;;;;;;3.13;0.63;;;12.90;99.90;;;;;;4895220;29;20060;-56
2022/05/26 06:30:12;;;;;;;5.53;0.70;;;13.10;99.90;;;;;;4895504;29;20059;-57
2022/05/26 06:38:24;;;;;;;2.20;0.32;;;13.40;99.90;;;;;;4887639;29;20053;-57
2022/05/26 06:40:52;;;;;;;1.98;0.50;;;13.40;99.90;;;;;;4895123;29;20056;-56
2022/05/26 06:43:20;;;;;;;2.05;0.40;;;13.40;99.90;;;;;;4896344;29;20047;-57
2022/05/26 06:45:49;;;;;;;1.40;0.30;;;13.50;99.90;;;;;;4893412;29;20142;-57
2022/05/26 06:48:17;;;;;;;1.50;0.30;;;13.60;99.90;;;;;;4891041;29;20044;-57
2022/05/26 06:50:44;;;;;;;0.98;0.40;;;13.60;99.90;;;;;;4874463;29;20048;-57
2022/05/26 06:53:12;;;;;;;1.92;0.30;;;13.60;99.90;;;;;;4885163;29;20048;-57
2022/05/26 06:55:40;;;;;;;3.70;0.60;;;13.70;99.90;;;;;;4894248;29;20048;-58
2022/05/26 06:58:07;;;;;;;0.45;0.30;;;13.70;99.90;;;;;;4895978;29;20477;-57
2022/05/26 07:00:35;;;;;;;3.58;0.35;;;13.70;99.90;;;;;;4895625;29;20536;-57
2022/05/26 07:03:03;;;;;;;2.92;0.43;;;13.70;99.90;;;;;;4892487;29;20056;-57
2022/05/26 07:05:35;;;;;;;2.85;0.60;;;13.70;99.90;;;;;;4873935;29;20505;-57
2022/05/26 07:08:04;;;;;;;1.40;0.40;;;13.70;99.90;;;;;;4883909;29;20040;-57
2022/05/26 07:10:34;;;;;;;1.58;0.57;;;13.70;99.90;;;;;;4895855;29;20550;-57
2022/05/26 07:13:02;;;;;;;1.70;0.70;;;13.70;99.90;;;;;;4895844;29;20044;-57
2022/05/26 07:15:30;;;;;;;2.08;0.30;;;13.70;99.90;;;;;;4895770;29;20416;-57
2022/05/26 07:17:58;;;;;;;3.10;0.70;;;13.70;99.90;;;;;;4895593;29;20052;-57
2022/05/26 07:20:26;;;;;;;2.97;0.60;;;13.60;99.90;;;;;;4878288;29;20057;-57
2022/05/26 07:22:53;;;;;;;2.22;0.38;;;13.60;99.90;;;;;;4884303;29;20400;-57
2022/05/26 07:25:21;;;;;;;0.63;0.20;;;13.70;99.90;;;;;;4895288;29;20412;-56
2022/05/26 07:27:48;;;;;;;2.05;0.20;;;13.80;99.90;;;;;;4895435;29;20040;-57
2022/05/26 07:30:16;;;;;;;1.20;0.40;;;13.80;99.90;;;;;;4894725;29;20048;-56
2022/05/26 07:32:44;;;;;;;2.15;0.50;;;13.90;99.90;;;;;;4895644;29;20052;-56
2022/05/26 07:35:12;;;;;;;2.72;0.25;;;14.00;99.90;;;;;;4880937;29;20053;-56
2022/05/26 07:43:17;;;;;;;2.28;0.43;;;14.20;99.90;;;;;;4891164;29;20047;-55
2022/05/26 07:45:45;;;;;;;2.78;0.20;;;14.30;99.90;;;;;;4893665;29;20049;-55
2022/05/26 07:48:13;;;;;;;1.05;0.20;;;14.30;99.90;;;;;;4886897;29;20041;-55
2022/05/26 07:50:41;;;;;;;2.63;0.75;;;14.40;99.90;;;;;;4879724;29;20068;-55
2022/05/26 07:53:08;;;;;;;0.57;0.10;;;14.50;99.90;;;;;;4890562;29;20056;-56
2022/05/26 07:55:38;;;;;;;0.82;0.17;;;14.50;99.90;;;;;;4895267;29;20056;-56
2022/05/26 07:58:06;;;;;;;2.63;0.25;;;14.60;99.90;;;;;;4885951;29;20516;-56
2022/05/26 08:00:34;;;;;;;0.50;0.20;;;14.70;99.90;;;;;;4890009;29;20051;-56
2022/05/26 08:03:02;;;;;;;2.55;0.10;;;14.80;99.90;;;;;;4893703;29;20060;-56
2022/05/26 08:05:30;;;;;;;1.38;0.20;;;14.90;99.90;;;;;;4891106;29;20421;-56
2022/05/26 08:07:58;;;;;;;3.70;0.30;;;14.90;99.90;;;;;;4894267;29;20056;-56
2022/05/26 08:10:25;;;;;;;1.38;0.10;;;14.90;99.90;;;;;;4890640;29;20052;-57
2022/05/26 08:12:53;;;;;;;0.80;0.25;;;14.90;99.90;;;;;;4890075;29;20041;-56
2022/05/26 08:15:27;;;;;;;3.15;0.20;;;14.90;99.90;;;;;;4892387;29;20053;-57
2022/05/26 08:17:55;;;;;;;1.27;0.22;;;15.00;99.90;;;;;;4893588;29;20064;-60
2022/05/26 08:20:23;;;;;;;0.38;0.10;;;15.00;99.90;;;;;;4880795;29;20629;-56
2022/05/26 08:22:51;;;;;;;1.42;0.17;;;15.10;99.90;;;;;;4882948;29;20075;-57
2022/05/26 08:25:18;;;;;;;0.43;0.20;;;15.10;99.90;;;;;;4893606;29;20130;-56
2022/05/26 08:27:46;;;;;;;1.27;0.20;;;15.20;99.90;;;;;;4888494;29;20478;-57
2022/05/26 08:30:14;;;;;;;4.20;0.77;;;15.20;99.90;;;;;;4893497;29;20060;-56
2022/05/26 08:32:43;;;;;;;1.27;0.20;;;15.30;99.90;;;;;;4886552;29;20114;-56
2022/05/26 08:35:12;;;;;;;1.03;0.10;;;15.30;99.90;;;;;;4893563;29;20053;-56
2022/05/26 08:37:40;;;;;;;1.42;0.20;;;15.40;99.90;;;;;;4894634;29;20053;-56
2022/05/26 08:40:08;;;;;;;1.38;0.30;;;15.40;99.90;;;;;;4894576;29;20056;-56
2022/05/26 08:42:37;;;;;;;0.90;0.40;;;15.50;99.90;;;;;;4898025;29;20444;-56
2022/05/26 08:45:11;;;;;;;0.75;0.30;;;15.50;99.90;;;;;;4898637;29;20055;-57
2022/05/26 08:47:45;;;;;;;1.08;0.40;;;15.60;99.90;;;;;;4898232;29;20068;-56
2022/05/26 08:50:32;;;;;;;3.33;0.90;;;15.50;99.90;;;;;;4887141;29;20061;-56
2022/05/26 08:53:15;;;;;;;2.90;0.90;;;15.50;99.90;;;;;;4888503;29;20067;-56
2022/05/26 08:55:45;;;;;;;1.05;0.30;;;15.50;99.90;;;;;;4898437;29;20049;-57
2022/05/26 08:58:19;;;;;;;1.20;0.38;;;15.50;99.90;;;;;;4898138;29;20049;-56
2022/05/26 09:00:49;;;;;;;2.05;0.43;;;15.60;99.90;;;;;;4898388;29;20059;-56
2022/05/26 09:03:17;;;;;;;6.45;0.95;;;15.70;99.90;;;;;;4898077;29;20059;-56
2022/05/26 09:05:49;;;;;;;6.93;0.70;;;15.80;99.90;;;;;;4884067;29;20053;-56
2022/05/26 09:13:59;;;;;;;5.07;0.80;;;16.00;99.90;;;;;;4897843;29;20052;-56
2022/05/26 09:16:30;;;;;;;4.22;0.82;;;16.10;99.90;;;;;;4898041;29;20049;-57
2022/05/26 09:19:10;;;;;;;3.10;0.90;;;16.20;99.90;;;;;;4897841;29;20048;-56
2022/05/26 09:21:38;;;;;;;7.18;1.13;;;16.20;99.90;;;;;;4879127;29;20064;-56
2022/05/26 09:24:36;;;;;;;4.20;1.40;;;16.20;99.90;;;;;;4896488;29;20060;-56
2022/05/26 09:27:24;;;;;;;5.40;1.33;;;16.30;99.90;;;;;;4896520;29;20059;-57
2022/05/26 09:29:52;;;;;;;4.47;1.17;;;16.30;99.90;;;;;;4897767;29;20063;-56
2022/05/26 09:32:30;;;;;;;6.68;1.55;;;16.30;99.90;;;;;;4881102;29;20060;-56
2022/05/26 09:35:04;;;;;;;8.43;2.38;;;16.20;99.90;;;;;;4896852;29;20051;-56
2022/05/26 09:37:43;;;;;;;7.85;1.67;;;16.10;99.90;;;;;;4897501;29;20056;-56
2022/05/26 09:40:18;;;;;;;11.57;2.00;;;16.10;99.90;;;;;;4897728;29;20048;-56
2022/05/26 09:42:51;;;;;;;8.20;1.40;;;16.10;99.90;;;;;;4896304;29;20060;-57
2022/05/26 09:45:20;;;;;;;12.48;2.38;;;16.10;99.90;;;;;;4897553;29;20044;-56
2022/05/26 09:47:53;;;;;;;8.02;1.80;;;16.00;99.90;;;;;;4896147;29;20540;-56
2022/05/26 09:50:33;;;;;;;9.02;2.35;;;16.00;99.90;;;;;;4889387;29;20049;-56
2022/05/26 09:53:03;;;;;;;6.78;1.42;;;16.00;99.90;;;;;;4886555;29;20622;-57
2022/05/26 09:55:49;;;;;;;8.75;1.70;;;16.00;99.90;;;;;;4897284;29;20060;-56
2022/05/26 09:58:28;;;;;;;10.52;2.55;;;16.00;99.90;;;;;;4897286;29;20059;-57
2022/05/26 10:00:59;;;;;;;9.43;1.77;;;16.00;99.90;;;;;;4897188;29;20055;-56
2022/05/26 10:03:44;;;;;;;10.50;1.67;;;15.90;99.90;;;;;;4897054;29;20489;-57
2022/05/26 10:06:25;;;;;;;12.48;2.30;;;16.00;99.90;;;;;;4883652;29;20053;-56
2022/05/26 10:09:16;;;;;;;11.50;1.77;;;16.10;99.90;;;;;;4891567;29;20520;-57
2022/05/26 10:11:56;;;;;;;8.65;1.25;;;16.30;99.90;;;;;;4897099;29;20060;-56
2022/05/26 10:14:38;;;;;;;12.68;1.75;;;16.50;99.90;;;;;;4897225;29;20400;-57
2022/05/26 10:17:28;;;;;;;7.68;1.50;;;16.60;99.90;;;;;;4897139;29;20048;-56
2022/05/26 10:20:24;;;;;;;13.68;2.55;;;16.90;99.90;;;;;;4895750;29;20049;-57
2022/05/26 10:23:16;;;;;;;13.15;1.85;;;16.90;99.90;;;;;;4895715;29;20048;-57
2022/05/26 10:26:19;;;;;;;8.25;1.70;;;17.00;99.90;;;;;;4852518;29;20052;-57
2022/05/26 10:29:19;;;;;;;4.82;1.27;;;17.10;99.90;;;;;;4883453;29;20057;-56
2022/05/26 10:32:16;;;;;;;7.13;2.28;;;17.20;99.90;;;;;;4878429;29;20055;-56
2022/05/26 10:35:02;;;;;;;7.55;1.67;;;17.30;99.90;;;;;;4884336;29;20052;-57
2022/05/26 10:37:45;;;;;;;8.70;1.77;;;18.60;99.90;;;;;;4892320;29;20049;-57
2022/05/26 10:40:31;;;;;;;9.98;2.20;;;17.30;99.90;;;;;;4896638;29;20048;-57
2022/05/26 10:43:25;;;;;;;9.55;1.67;;;17.30;99.90;;;;;;4896509;29;20051;-56
2022/05/26 10:45:54;;;;;;;7.95;1.40;;;17.30;99.90;;;;;;4896550;29;20044;-57
2022/05/26 10:48:36;;;;;;;10.68;1.98;;;17.20;99.90;;;;;;4895111;29;20072;-57
2022/05/26 10:51:10;;;;;;;13.23;2.15;;;17.10;99.90;;;;;;4895415;29;20051;-57
2022/05/26 10:54:03;;;;;;;10.00;1.95;;;17.00;99.90;;;;;;4896353;29;20056;-57
2022/05/26 10:56:39;;;;;;;10.02;2.08;;;17.00;99.90;;;;;;4895043;29;20063;-57
2022/05/26 10:59:27;;;;;;;11.48;1.58;;;17.00;99.90;;;;;;4894285;29;20045;-57
2022/05/26 11:02:07;;;;;;;11.40;1.55;;;17.00;99.90;;;;;;4894772;29;20048;-57
2022/05/26 11:04:40;;;;;;;11.65;2.60;;;16.90;99.90;;;;;;4891169;29;20052;-57
2022/05/26 11:07:20;;;;;;;5.57;1.90;;;16.80;99.90;;;;;;4877914;29;20060;-57
2022/05/26 11:09:52;;;;;;;;;;;16.80;99.90;;;;;;4878131;29;20057;-57
2022/05/26 11:12:54;;;;;;;9.52;1.90;;;16.80;99.90;;;;;;4880440;29;19928;-57
2022/05/26 11:18:27;;;;;;;10.55;1.80;;;16.90;99.90;;;;;;4885506;29;20060;-57
2022/05/26 11:20:57;;;;;;;7.15;1.50;;;16.90;99.90;;;;;;4888373;29;20049;-57
2022/05/26 11:23:31;;;;;;;7.30;2.33;;;16.80;99.90;;;;;;4888535;29;20040;-57
2022/05/26 11:26:04;;;;;;;9.63;1.88;;;16.90;99.90;;;;;;4895484;29;20068;-57
2022/05/26 11:28:51;;;;;;;9.70;1.38;;;16.90;99.90;;;;;;4895864;29;20057;-58
2022/05/26 11:37:36;;;;;;;10.55;1.90;;;16.90;99.90;;;;;;4892673;29;20505;-60
2022/05/26 11:40:11;;;;;;;7.30;1.00;;;16.90;99.90;;;;;;4894943;29;20546;-58
2022/05/26 11:42:55;;;;;;;4.13;1.00;;;16.90;99.90;;;;;;4895571;29;20386;-57
2022/05/26 11:45:25;;;;;;;12.18;1.98;;;16.90;99.90;;;;;;4878713;29;20496;-57
2022/05/26 11:47:53;;;;;;;;;;;16.90;99.90;;;;;;4879122;29;20060;-56
2022/05/26 11:50:32;;;;;;;5.78;1.10;;;17.00;99.90;;;;;;4895329;29;19923;-56
2022/05/26 11:53:06;;;;;;;5.70;1.48;;;17.10;99.90;;;;;;4894099;29;20056;-56
2022/05/26 11:55:54;;;;;;;7.53;1.50;;;17.20;99.90;;;;;;4895243;29;20048;-57
2022/05/26 11:58:38;;;;;;;8.77;1.80;;;17.50;99.90;;;;;;4892778;29;20511;-56
2022/05/26 12:01:12;;;;;;;8.18;1.73;;;17.70;99.90;;;;;;4878417;29;20389;-57
2022/05/26 12:04:25;;;;;;;12.18;2.20;;;17.90;99.90;;;;;;4890412;29;20049;-57
2022/05/26 12:06:57;;;;;;;10.23;1.60;;;18.10;99.90;;;;;;4883165;29;20060;-57
2022/05/26 12:09:50;;;;;;;10.98;1.65;;;18.10;99.90;;;;;;4881736;29;20055;-57
2022/05/26 12:12:22;;;;;;;8.73;1.40;;;18.00;99.90;;;;;;4892051;29;20044;-57
2022/05/26 12:14:50;;;;;;;10.88;1.33;;;18.00;99.90;;;;;;4894389;29;20064;-57
2022/05/26 12:17:44;;;;;;;11.20;2.38;;;17.90;99.90;;;;;;4894417;29;20489;-57
2022/05/26 12:20:11;;;;;;;8.15;1.50;;;17.90;99.90;;;;;;4893829;29;20053;-57
2022/05/26 12:22:41;;;;;;;5.88;1.25;;;17.90;99.90;;;;;;4884818;29;20437;-57
2022/05/26 12:25:34;;;;;;;8.15;1.75;;;17.90;99.90;;;;;;4892495;29;20521;-57
2022/05/26 12:28:24;;;;;;;10.88;2.13;;;17.80;99.90;;;;;;4893928;29;20060;-57
2022/05/26 12:30:52;;;;;;;12.00;2.53;;;17.60;99.90;;;;;;4893890;29;20048;-57
2022/05/26 12:33:47;;;;;;;9.98;2.13;;;17.50;99.90;;;;;;4893639;29;20045;-57
2022/05/26 12:36:30;;;;;;;4.90;1.33;;;17.50;99.90;;;;;;4891258;29;20053;-57
2022/05/26 12:38:57;;;;;;;8.10;1.75;;;17.50;99.90;;;;;;4889016;29;20041;-57
2022/05/26 12:42:02;;;;;;;7.57;1.08;;;17.40;99.90;;;;;;4886485;29;20057;-57
2022/05/26 12:45:01;;;;;;;10.02;1.85;;;17.30;99.90;;;;;;4892162;29;20055;-57
2022/05/26 12:47:38;;;;;;;8.88;1.83;;;17.20;99.90;;;;;;4894623;29;20061;-57
2022/05/26 12:50:08;;;;;;;11.05;2.03;;;17.20;99.90;;;;;;4893889;29;20400;-57
2022/05/26 12:52:40;;;;;;;7.28;1.40;;;17.10;99.90;;;;;;4889269;29;20052;-57
2022/05/26 12:55:26;;;;;;;7.38;1.35;;;16.90;99.90;;;;;;4894050;29;20508;-57
2022/05/26 12:57:57;;;;;;;8.63;2.13;;;16.80;99.90;;;;;;4891619;29;20083;-57
2022/05/26 13:00:33;;;;;;;6.53;1.60;;;16.80;99.90;;;;;;4886721;29;20051;-57
2022/05/26 13:03:05;;;;;;;8.90;1.88;;;16.80;99.90;;;;;;4892537;29;20048;-57
2022/05/26 13:05:37;;;;;;;7.78;1.73;;;16.80;99.90;;;;;;4893441;29;20049;-57
2022/05/26 13:08:10;;;;;;;13.50;1.80;;;16.70;99.90;;;;;;4890081;29;20064;-57
2022/05/26 13:10:40;;;;;;;5.97;1.50;;;16.70;99.90;;;;;;4893833;29;20056;-57
2022/05/26 13:13:21;;;;;;;7.25;1.13;;;16.70;99.90;;;;;;4894365;29;20532;-56
2022/05/26 13:15:49;;;;;;;11.20;1.70;;;16.70;99.90;;;;;;4893456;29;20052;-57
2022/05/26 13:18:25;;;;;;;7.43;1.98;;;16.70;99.90;;;;;;4893261;29;20115;-57
2022/05/26 13:20:52;;;;;;;8.70;1.65;;;16.70;99.90;;;;;;4893000;29;20406;-57
2022/05/26 13:23:30;;;;;;;9.23;2.45;;;16.70;99.90;;;;;;4893073;29;20056;-57
2022/05/26 13:25:59;;;;;;;5.15;1.88;;;16.70;99.90;;;;;;4887807;29;20401;-57
2022/05/26 13:28:32;;;;;;;6.05;1.77;;;16.80;99.90;;;;;;4897253;29;20489;-57
2022/05/26 13:34:10;;;;;;;;;;;16.70;99.90;;;;;;4896825;29;20052;-57
2022/05/26 13:36:41;;;;;;;8.18;1.95;;;16.70;99.90;;;;;;4897642;29;19930;-57
2022/05/26 13:39:18;;;;;;;3.72;1.40;;;16.70;99.90;;;;;;4895833;29;20048;-57
2022/05/26 13:41:50;;;;;;;9.18;1.73;;;16.70;99.90;;;;;;4896725;29;20044;-57
2022/05/26 13:44:41;;;;;;;7.40;1.48;;;16.60;99.90;;;;;;4896320;29;20063;-57
2022/05/26 13:47:12;;;;;;;8.48;1.48;;;16.60;99.90;;;;;;4896538;29;20052;-57
2022/05/26 13:49:46;;;;;;;6.88;1.50;;;16.50;99.90;;;;;;4896406;29;20055;-57
2022/05/26 13:52:19;;;;;;;8.32;1.98;;;16.50;99.90;;;;;;4897734;29;20064;-57
2022/05/26 13:55:06;;;;;;;7.10;1.65;;;16.50;99.90;;;;;;4894174;29;20040;-57
2022/05/26 13:57:45;;;;;;;13.18;2.67;;;16.50;99.90;;;;;;4896104;29;20064;-57
2022/05/26 14:00:26;;;;;;;9.63;1.80;;;16.60;99.90;;;;;;4895050;29;20420;-58
2022/05/26 14:03:23;;;;;;;5.07;1.58;;;16.60;99.90;;;;;;4895847;29;20057;-57
2022/05/26 14:06:08;;;;;;;12.77;2.00;;;16.60;99.90;;;;;;4895247;29;20060;-57
2022/05/26 14:08:50;;;;;;;11.43;1.98;;;16.60;99.90;;;;;;4891774;29;20421;-56
2022/05/26 14:11:37;;;;;;;3.92;1.65;;;16.50;99.90;;;;;;4894343;29;20523;-57
2022/05/26 14:14:38;;;;;;;8.70;1.75;;;16.50;99.90;;;;;;4895779;29;20056;-57